Time;durP1;ratioP1;P1;durP2;ratioP2;P2;SDS_P1;SDS_P2;PMS_P1;PMS_P2;Temp;Humidity;BMP_temperature;BMP_pressure;BME280_temperature;BME280_humidity;BME280_pressure;Samples;Min_cycle;Max_cycle;Signal;HPM_P1;HPM_P2
2023/01/09 00:01:51;;;;;;;5.80;5.30;;;;;;;;;;5041207;28;20454;-75
2023/01/09 00:04:19;;;;;;;6.50;6.00;;;;;;;;;;5044333;28;20442;-77
2023/01/09 00:06:52;;;;;;;6.20;5.70;;;;;;;;;;5039188;28;20438;-77
2023/01/09 00:09:19;;;;;;;5.83;5.40;;;;;;;;;;5048265;28;20465;-76
2023/01/09 00:11:46;;;;;;;6.37;5.77;;;;;;;;;;5029887;28;20793;-76
2023/01/09 00:14:14;;;;;;;5.47;5.07;;;;;;;;;;5030382;28;20446;-78
2023/01/09 00:16:41;;;;;;;5.90;5.43;;;;;;;;;;5049987;28;20472;-76
2023/01/09 00:19:09;;;;;;;5.67;5.27;;;;;;;;;;5049454;28;20469;-79
2023/01/09 00:21:37;;;;;;;6.00;5.60;;;;;;;;;;5049371;28;20449;-76
2023/01/09 00:24:04;;;;;;;6.03;5.53;;;;;;;;;;5046990;28;20806;-75
2023/01/09 00:26:31;;;;;;;5.23;4.83;;;;;;;;;;5040461;28;20849;-76
2023/01/09 00:28:58;;;;;;;5.80;5.30;;;;;;;;;;5039419;28;20466;-76
2023/01/09 00:31:25;;;;;;;5.20;4.70;;;;;;;;;;5042106;28;20796;-77
2023/01/09 00:33:55;;;;;;;5.07;4.60;;;;;;;;;;5044074;28;20465;-76
2023/01/09 00:36:24;;;;;;;5.17;4.77;;;;;;;;;;5042259;28;20469;-77
2023/01/09 00:38:51;;;;;;;4.87;4.47;;;;;;;;;;5043393;28;20457;-77
2023/01/09 00:41:19;;;;;;;5.60;5.10;;;;;;;;;;5053575;28;20965;-75
2023/01/09 00:43:49;;;;;;;4.23;3.93;;;;;;;;;;5072627;28;20472;-77
2023/01/09 00:46:17;;;;;;;4.27;3.97;;;;;;;;;;5073318;28;20445;-77
2023/01/09 00:48:46;;;;;;;3.90;3.70;;;;;;;;;;5072442;28;20460;-75
2023/01/09 00:51:13;;;;;;;4.20;4.00;;;;;;;;;;5073024;28;20436;-76
2023/01/09 00:53:42;;;;;;;4.03;3.73;;;;;;;;;;5072078;28;21015;-76
2023/01/09 00:56:11;;;;;;;4.57;4.17;;;;;;;;;;5072235;28;20445;-77
2023/01/09 00:58:38;;;;;;;4.20;3.90;;;;;;;;;;5072433;28;20877;-77
2023/01/09 01:01:06;;;;;;;4.10;3.77;;;;;;;;;;5072142;28;20800;-76
2023/01/09 01:03:33;;;;;;;3.47;3.20;;;;;;;;;;5072381;28;20453;-77
2023/01/09 01:08:46;;;;;;;2.87;2.70;;;;;;;;;;5071958;28;20490;-76
2023/01/09 01:11:13;;;;;;;3.20;3.00;;;;;;;;;;5072272;28;20454;-76
2023/01/09 01:13:41;;;;;;;2.87;2.67;;;;;;;;;;5062117;28;20481;-76
2023/01/09 01:16:09;;;;;;;2.97;2.77;;;;;;;;;;5056169;28;20454;-76
2023/01/09 01:18:37;;;;;;;2.13;2.03;;;;;;;;;;5054401;28;20465;-76
2023/01/09 01:21:06;;;;;;;2.20;2.10;;;;;;;;;;5054493;28;20446;-77
2023/01/09 01:23:33;;;;;;;2.40;2.30;;;;;;;;;;5054071;28;20433;-76
2023/01/09 01:26:05;;;;;;;2.40;2.30;;;;;;;;;;5057247;28;20445;-75
2023/01/09 01:28:32;;;;;;;2.07;1.97;;;;;;;;;;5056056;28;20508;-76
2023/01/09 01:31:00;;;;;;;2.30;2.10;;;;;;;;;;5068313;28;20449;-76
2023/01/09 01:33:27;;;;;;;1.73;1.63;;;;;;;;;;5066986;28;20511;-77
2023/01/09 01:36:00;;;;;;;1.80;1.70;;;;;;;;;;5061432;28;20448;-76
2023/01/09 01:38:27;;;;;;;1.70;1.70;;;;;;;;;;5051500;28;20469;-77
2023/01/09 01:40:54;;;;;;;2.03;1.93;;;;;;;;;;5050983;28;20445;-75
2023/01/09 01:43:22;;;;;;;2.20;1.70;;;;;;;;;;5051227;28;20457;-75
2023/01/09 01:45:49;;;;;;;1.43;1.43;;;;;;;;;;5051650;28;20466;-75
2023/01/09 01:48:18;;;;;;;1.17;1.17;;;;;;;;;;5070098;28;20489;-75
2023/01/09 01:50:47;;;;;;;1.50;1.40;;;;;;;;;;5071457;28;20488;-77
2023/01/09 01:53:16;;;;;;;1.30;1.30;;;;;;;;;;5070836;28;20534;-77
2023/01/09 01:55:45;;;;;;;1.00;1.00;;;;;;;;;;5071124;28;20844;-77
2023/01/09 01:58:14;;;;;;;1.10;1.10;;;;;;;;;;5071196;28;20460;-76
2023/01/09 02:00:45;;;;;;;1.20;1.20;;;;;;;;;;5072209;28;20449;-76
2023/01/09 02:03:13;;;;;;;1.20;1.20;;;;;;;;;;5084409;28;20421;-76
2023/01/09 02:05:40;;;;;;;1.07;1.07;;;;;;;;;;5071880;28;20429;-76
2023/01/09 02:08:08;;;;;;;0.97;0.97;;;;;;;;;;5083971;28;21023;-77
2023/01/09 02:10:35;;;;;;;1.03;1.03;;;;;;;;;;5082782;28;20460;-76
2023/01/09 02:13:03;;;;;;;1.37;1.07;;;;;;;;;;5070957;28;20502;-76
2023/01/09 02:15:35;;;;;;;1.23;1.20;;;;;;;;;;5066099;28;20452;-76
2023/01/09 02:18:26;;;;;;;0.90;0.90;;;;;;;;;;5064682;28;20564;-78
2023/01/09 02:20:56;;;;;;;1.03;1.03;;;;;;;;;;5057023;28;20467;-76
2023/01/09 02:23:47;;;;;;;0.90;0.90;;;;;;;;;;5052568;28;20548;-77
2023/01/09 02:26:35;;;;;;;1.03;1.03;;;;;;;;;;5052974;28;20442;-77
2023/01/09 02:29:20;;;;;;;1.30;1.20;;;;;;;;;;5052325;28;20454;-76
2023/01/09 02:31:51;;;;;;;0.93;0.93;;;;;;;;;;5021868;28;20441;-77
2023/01/09 02:34:24;;;;;;;0.90;0.90;;;;;;;;;;5051522;28;20473;-76
2023/01/09 02:36:55;;;;;;;1.17;1.17;;;;;;;;;;5052147;28;20445;-76
2023/01/09 02:39:24;;;;;;;0.93;0.93;;;;;;;;;;5050887;28;20474;-77
2023/01/09 02:41:54;;;;;;;0.80;0.80;;;;;;;;;;5050881;28;20441;-77
2023/01/09 02:44:22;;;;;;;4.67;1.83;;;;;;;;;;5050399;28;20442;-75
2023/01/09 02:47:02;;;;;;;0.90;0.90;;;;;;;;;;5051341;28;20445;-75
2023/01/09 02:49:29;;;;;;;1.17;1.17;;;;;;;;;;5051210;28;20479;-76
2023/01/09 02:52:02;;;;;;;1.00;1.00;;;;;;;;;;5049983;28;20452;-75
2023/01/09 02:54:33;;;;;;;0.90;0.90;;;;;;;;;;5050687;28;20477;-76
2023/01/09 02:57:18;;;;;;;1.00;1.00;;;;;;;;;;5050156;28;20442;-78
2023/01/09 02:59:54;;;;;;;0.70;0.70;;;;;;;;;;5049997;28;20595;-75
2023/01/09 03:02:33;;;;;;;1.00;0.90;;;;;;;;;;5050124;28;20449;-75
2023/01/09 03:05:04;;;;;;;0.80;0.80;;;;;;;;;;5049892;28;20463;-75
2023/01/09 03:07:33;;;;;;;0.70;0.70;;;;;;;;;;5049589;28;20503;-76
2023/01/09 03:10:02;;;;;;;0.67;0.67;;;;;;;;;;5049649;28;20906;-77
2023/01/09 03:12:30;;;;;;;0.80;0.80;;;;;;;;;;5049471;28;20446;-77
2023/01/09 03:14:58;;;;;;;0.90;0.90;;;;;;;;;;5049894;28;20478;-77
2023/01/09 03:17:28;;;;;;;0.63;0.63;;;;;;;;;;5049888;28;20465;-76
2023/01/09 03:19:57;;;;;;;0.63;0.63;;;;;;;;;;5049962;28;20433;-76
2023/01/09 03:22:25;;;;;;;0.87;0.87;;;;;;;;;;5049476;28;20445;-78
2023/01/09 03:24:52;;;;;;;0.80;0.80;;;;;;;;;;5049206;28;20442;-76
2023/01/09 03:27:19;;;;;;;1.23;0.57;;;;;;;;;;5049969;28;20472;-75
2023/01/09 03:29:46;;;;;;;0.73;0.73;;;;;;;;;;5049925;28;20545;-75
2023/01/09 03:32:13;;;;;;;0.80;0.80;;;;;;;;;;5049714;28;20873;-75
2023/01/09 03:34:41;;;;;;;0.97;0.80;;;;;;;;;;5049658;28;20485;-75
2023/01/09 03:37:08;;;;;;;1.57;0.70;;;;;;;;;;5049922;28;20445;-76
2023/01/09 03:39:35;;;;;;;0.90;0.90;;;;;;;;;;5049783;28;20473;-75
2023/01/09 03:42:02;;;;;;;2.93;0.80;;;;;;;;;;5054591;28;20468;-75
2023/01/09 03:44:29;;;;;;;0.63;0.60;;;;;;;;;;5058766;28;20449;-75
2023/01/09 03:46:56;;;;;;;0.80;0.80;;;;;;;;;;5058960;28;20511;-76
2023/01/09 03:49:24;;;;;;;0.50;0.50;;;;;;;;;;5059381;28;20465;-76
2023/01/09 03:51:52;;;;;;;0.70;0.70;;;;;;;;;;5060170;28;20446;-77
2023/01/09 03:54:19;;;;;;;0.53;0.53;;;;;;;;;;5059837;28;20481;-76
2023/01/09 03:56:46;;;;;;;0.60;0.60;;;;;;;;;;5056503;28;20859;-77
2023/01/09 03:59:13;;;;;;;0.73;0.73;;;;;;;;;;5049734;28;20462;-76
2023/01/09 04:01:40;;;;;;;0.60;0.60;;;;;;;;;;5049607;28;20820;-76
2023/01/09 04:04:07;;;;;;;0.60;0.60;;;;;;;;;;5051252;28;20448;-74
2023/01/09 04:06:34;;;;;;;0.57;0.57;;;;;;;;;;5053373;28;20957;-77
2023/01/09 04:09:03;;;;;;;0.60;0.60;;;;;;;;;;5053941;28;20491;-76
2023/01/09 04:11:30;;;;;;;0.50;0.50;;;;;;;;;;5053407;28;20503;-76
2023/01/09 04:13:57;;;;;;;0.57;0.53;;;;;;;;;;5053692;28;20481;-75
2023/01/09 04:16:24;;;;;;;0.60;0.60;;;;;;;;;;5035367;28;20450;-76
2023/01/09 04:18:51;;;;;;;0.60;0.60;;;;;;;;;;5033822;28;20454;-76
2023/01/09 04:21:18;;;;;;;0.50;0.50;;;;;;;;;;5033504;28;20469;-76
2023/01/09 04:23:45;;;;;;;0.60;0.60;;;;;;;;;;5033457;28;20456;-78
2023/01/09 04:26:13;;;;;;;0.60;0.60;;;;;;;;;;5033311;28;20510;-75
2023/01/09 04:28:40;;;;;;;0.70;0.70;;;;;;;;;;5032912;28;20485;-77
2023/01/09 04:31:07;;;;;;;0.67;0.67;;;;;;;;;;5033366;28;20449;-76
2023/01/09 04:33:35;;;;;;;0.60;0.60;;;;;;;;;;5032556;28;20536;-75
2023/01/09 04:36:02;;;;;;;0.50;0.50;;;;;;;;;;5033380;28;20450;-76
2023/01/09 04:38:29;;;;;;;1.00;0.40;;;;;;;;;;5033286;28;20474;-75
2023/01/09 04:40:56;;;;;;;0.70;0.70;;;;;;;;;;5033747;28;20450;-77
2023/01/09 04:43:24;;;;;;;0.43;0.43;;;;;;;;;;5032743;28;20453;-76
2023/01/09 04:45:51;;;;;;;0.60;0.60;;;;;;;;;;5032643;28;20479;-75
2023/01/09 04:48:18;;;;;;;0.80;0.70;;;;;;;;;;5048110;28;20473;-75
2023/01/09 04:50:45;;;;;;;0.63;0.50;;;;;;;;;;5052563;28;20450;-76
2023/01/09 04:53:12;;;;;;;0.70;0.70;;;;;;;;;;5059373;28;20452;-77
2023/01/09 04:55:40;;;;;;;0.70;0.70;;;;;;;;;;5053463;28;20522;-76
2023/01/09 04:58:07;;;;;;;0.60;0.60;;;;;;;;;;5052752;28;20477;-76
2023/01/09 05:00:35;;;;;;;0.70;0.70;;;;;;;;;;5064643;28;20435;-75
2023/01/09 05:03:02;;;;;;;0.60;0.60;;;;;;;;;;5073255;28;20983;-80
2023/01/09 05:05:29;;;;;;;0.80;0.80;;;;;;;;;;5072785;28;20466;-77
2023/01/09 05:07:56;;;;;;;0.53;0.53;;;;;;;;;;5073189;28;20480;-78
2023/01/09 05:10:23;;;;;;;0.60;0.60;;;;;;;;;;5072955;28;20448;-75
2023/01/09 05:12:51;;;;;;;0.70;0.57;;;;;;;;;;5072599;28;20944;-78
2023/01/09 05:15:18;;;;;;;0.80;0.80;;;;;;;;;;5062129;28;20510;-76
2023/01/09 05:17:46;;;;;;;1.57;1.07;;;;;;;;;;5052367;28;20466;-76
2023/01/09 05:20:13;;;;;;;0.97;0.60;;;;;;;;;;5052541;28;20453;-76
2023/01/09 05:22:41;;;;;;;0.70;0.70;;;;;;;;;;5051693;28;20446;-77
2023/01/09 05:25:08;;;;;;;0.70;0.70;;;;;;;;;;5052185;28;20518;-76
2023/01/09 05:27:35;;;;;;;0.70;0.70;;;;;;;;;;5051819;28;20511;-76
2023/01/09 05:30:02;;;;;;;0.70;0.70;;;;;;;;;;5052253;28;20860;-76
2023/01/09 05:32:29;;;;;;;1.50;0.90;;;;;;;;;;5051954;28;20453;-76
2023/01/09 05:34:57;;;;;;;0.80;0.80;;;;;;;;;;5052286;28;20507;-76
2023/01/09 05:37:24;;;;;;;2.67;0.80;;;;;;;;;;5051679;28;20963;-76
2023/01/09 05:39:52;;;;;;;0.57;0.57;;;;;;;;;;5052389;28;20444;-77
2023/01/09 05:42:19;;;;;;;2.27;1.03;;;;;;;;;;5052889;28;20458;-76
2023/01/09 05:44:46;;;;;;;1.97;1.63;;;;;;;;;;5053036;28;20452;-77
2023/01/09 05:47:13;;;;;;;1.63;1.50;;;;;;;;;;5053225;28;20820;-76
2023/01/09 05:49:40;;;;;;;0.80;0.80;;;;;;;;;;5052577;28;20798;-76
2023/01/09 05:52:08;;;;;;;1.57;0.90;;;;;;;;;;5052223;28;20476;-77
2023/01/09 05:54:35;;;;;;;0.80;0.80;;;;;;;;;;5059311;28;20473;-77
2023/01/09 05:57:02;;;;;;;1.70;1.00;;;;;;;;;;5058780;28;20537;-76
2023/01/09 05:59:29;;;;;;;0.87;0.87;;;;;;;;;;5059576;28;20878;-76
2023/01/09 06:01:56;;;;;;;1.37;1.27;;;;;;;;;;5059793;28;20453;-76
2023/01/09 06:04:24;;;;;;;1.10;1.10;;;;;;;;;;5051761;28;20441;-76
2023/01/09 06:06:51;;;;;;;1.53;1.07;;;;;;;;;;5051304;28;20464;-76
2023/01/09 06:09:19;;;;;;;0.87;0.87;;;;;;;;;;5051064;28;20999;-76
2023/01/09 06:11:46;;;;;;;2.83;1.20;;;;;;;;;;5051212;28;20436;-78
2023/01/09 06:14:13;;;;;;;1.00;1.00;;;;;;;;;;5050444;28;20843;-77
2023/01/09 06:16:40;;;;;;;1.53;1.00;;;;;;;;;;5031488;28;20453;-76
2023/01/09 06:19:07;;;;;;;1.43;0.93;;;;;;;;;;5030868;28;20481;-76
2023/01/09 06:21:35;;;;;;;1.00;1.00;;;;;;;;;;5031167;28;20458;-76
2023/01/09 06:24:02;;;;;;;1.47;1.37;;;;;;;;;;5030544;28;20445;-76
2023/01/09 06:26:30;;;;;;;6.63;5.23;;;;;;;;;;5030315;28;20450;-76
2023/01/09 06:28:57;;;;;;;1.57;1.47;;;;;;;;;;5031136;28;20462;-77
2023/01/09 06:31:24;;;;;;;1.47;0.90;;;;;;;;;;5030883;28;20450;-76
2023/01/09 06:33:51;;;;;;;1.00;1.00;;;;;;;;;;5030747;28;20453;-76
2023/01/09 06:36:18;;;;;;;1.97;1.40;;;;;;;;;;5031171;28;20450;-76
2023/01/09 06:38:45;;;;;;;1.57;0.97;;;;;;;;;;5031175;28;20805;-77
2023/01/09 06:41:12;;;;;;;1.90;1.40;;;;;;;;;;5030967;28;20446;-78
2023/01/09 06:43:41;;;;;;;0.87;0.87;;;;;;;;;;5030403;28;20823;-77
2023/01/09 06:46:08;;;;;;;1.13;1.00;;;;;;;;;;5030716;28;20435;-76
2023/01/09 06:48:35;;;;;;;1.63;1.17;;;;;;;;;;5030840;28;20478;-76
2023/01/09 06:51:02;;;;;;;1.27;0.80;;;;;;;;;;5031105;28;20455;-76
2023/01/09 06:53:29;;;;;;;1.10;1.00;;;;;;;;;;5031292;28;20458;-77
2023/01/09 06:55:56;;;;;;;1.00;1.00;;;;;;;;;;5031149;28;20474;-77
2023/01/09 06:58:23;;;;;;;1.57;1.20;;;;;;;;;;5030754;28;20560;-76
2023/01/09 07:00:52;;;;;;;1.20;1.10;;;;;;;;;;5031290;28;20457;-76
2023/01/09 07:03:21;;;;;;;2.20;1.37;;;;;;;;;;5030719;28;20500;-76
2023/01/09 07:05:48;;;;;;;3.60;1.50;;;;;;;;;;5030373;28;20446;-75
2023/01/09 07:08:15;;;;;;;1.13;0.90;;;;;;;;;;5030771;28;20470;-76
2023/01/09 07:10:42;;;;;;;6.30;1.13;;;;;;;;;;5031191;28;20788;-75
2023/01/09 07:13:09;;;;;;;1.40;1.20;;;;;;;;;;5030759;28;20451;-76
2023/01/09 07:15:36;;;;;;;2.23;1.40;;;;;;;;;;5042538;28;20534;-76
2023/01/09 07:18:05;;;;;;;1.20;1.13;;;;;;;;;;5050343;28;20564;-76
2023/01/09 07:20:32;;;;;;;1.43;1.33;;;;;;;;;;5050280;28;20969;-76
2023/01/09 07:22:59;;;;;;;3.20;1.63;;;;;;;;;;5049796;28;20453;-77
2023/01/09 07:25:26;;;;;;;2.43;1.53;;;;;;;;;;5050743;28;20450;-76
2023/01/09 07:27:53;;;;;;;1.90;1.40;;;;;;;;;;5050150;28;20473;-75
2023/01/09 07:30:20;;;;;;;4.80;1.70;;;;;;;;;;5050394;28;20437;-75
2023/01/09 07:32:47;;;;;;;3.87;1.60;;;;;;;;;;5050899;28;20457;-74
2023/01/09 07:35:16;;;;;;;2.97;1.40;;;;;;;;;;5050502;28;20995;-76
2023/01/09 07:37:43;;;;;;;5.67;1.10;;;;;;;;;;5050942;28;20474;-76
2023/01/09 07:40:10;;;;;;;3.07;1.73;;;;;;;;;;5054072;28;20456;-75
2023/01/09 07:42:37;;;;;;;1.93;1.50;;;;;;;;;;5053569;28;20445;-77
2023/01/09 07:45:05;;;;;;;1.37;1.27;;;;;;;;;;5053781;28;20525;-76
2023/01/09 07:47:32;;;;;;;2.80;1.50;;;;;;;;;;5054801;28;20457;-76
2023/01/09 07:49:59;;;;;;;4.10;1.73;;;;;;;;;;5054316;28;20437;-75
2023/01/09 07:52:27;;;;;;;3.10;2.00;;;;;;;;;;5055008;28;20449;-75
2023/01/09 07:54:54;;;;;;;1.90;1.40;;;;;;;;;;5055210;28;20544;-74
2023/01/09 07:57:21;;;;;;;3.70;1.47;;;;;;;;;;5053849;28;20452;-76
2023/01/09 07:59:48;;;;;;;1.60;1.50;;;;;;;;;;5054118;28;21012;-76
2023/01/09 08:02:16;;;;;;;2.57;1.40;;;;;;;;;;5053766;28;20525;-76
2023/01/09 08:04:43;;;;;;;1.80;1.47;;;;;;;;;;5054177;28;20548;-76
2023/01/09 08:07:10;;;;;;;1.80;1.23;;;;;;;;;;5054270;28;20441;-76
2023/01/09 08:09:39;;;;;;;4.53;1.67;;;;;;;;;;5053961;28;20458;-75
2023/01/09 08:12:06;;;;;;;2.93;1.53;;;;;;;;;;5054512;28;20484;-77
2023/01/09 08:14:34;;;;;;;0.97;0.97;;;;;;;;;;5050150;28;20566;-75
2023/01/09 08:17:02;;;;;;;1.93;1.83;;;;;;;;;;5033564;28;20462;-77
2023/01/09 08:19:29;;;;;;;1.93;1.47;;;;;;;;;;5034068;28;20852;-75
2023/01/09 08:21:56;;;;;;;1.40;1.30;;;;;;;;;;5034375;28;20442;-76
2023/01/09 08:24:23;;;;;;;2.77;1.27;;;;;;;;;;5033595;28;20445;-77
2023/01/09 08:26:51;;;;;;;1.70;1.60;;;;;;;;;;5033507;28;20461;-77
2023/01/09 08:29:18;;;;;;;1.77;1.30;;;;;;;;;;5033957;28;20892;-75
2023/01/09 08:31:45;;;;;;;3.00;2.00;;;;;;;;;;5033501;28;20446;-75
2023/01/09 08:34:12;;;;;;;1.53;1.43;;;;;;;;;;5033648;28;20508;-76
2023/01/09 08:36:39;;;;;;;2.33;1.50;;;;;;;;;;5033875;28;20851;-76
2023/01/09 08:39:06;;;;;;;2.20;1.40;;;;;;;;;;5033040;28;20461;-75
2023/01/09 08:47:07;;;;;;;4.67;1.23;;;;;;;;;;5032578;28;20479;-74
2023/01/09 08:49:34;;;;;;;4.77;3.20;;;;;;;;;;5031872;28;20968;-74
2023/01/09 08:52:01;;;;;;;3.30;1.30;;;;;;;;;;5032661;28;20454;-75
2023/01/09 08:54:29;;;;;;;1.77;1.23;;;;;;;;;;5032383;28;20458;-75
2023/01/09 08:56:56;;;;;;;2.73;1.30;;;;;;;;;;5032872;28;20442;-76
2023/01/09 08:59:24;;;;;;;1.10;1.00;;;;;;;;;;5032613;28;20457;-76
2023/01/09 09:01:51;;;;;;;6.27;1.30;;;;;;;;;;5033439;28;20457;-77
2023/01/09 09:04:18;;;;;;;1.20;1.10;;;;;;;;;;5032717;28;20828;-76
2023/01/09 09:06:45;;;;;;;3.13;1.37;;;;;;;;;;5033606;28;20446;-76
2023/01/09 09:09:12;;;;;;;1.20;1.00;;;;;;;;;;5037592;28;20489;-76
2023/01/09 09:11:39;;;;;;;1.63;1.17;;;;;;;;;;5036841;28;20450;-76
2023/01/09 09:16:49;;;;;;;3.60;1.07;;;;;;;;;;5035848;28;20506;-77
2023/01/09 09:19:16;;;;;;;1.63;0.90;;;;;;;;;;5033667;28;20876;-76
2023/01/09 09:21:43;;;;;;;1.60;1.40;;;;;;;;;;5034734;28;20450;-75
2023/01/09 09:24:10;;;;;;;2.73;1.60;;;;;;;;;;5032553;28;20451;-74
2023/01/09 09:26:37;;;;;;;2.00;1.00;;;;;;;;;;5035295;28;20465;-75
2023/01/09 09:29:04;;;;;;;1.17;1.10;;;;;;;;;;5038178;28;20469;-76
2023/01/09 09:31:31;;;;;;;2.00;1.30;;;;;;;;;;5037046;28;20792;-77
2023/01/09 09:33:59;;;;;;;3.07;1.30;;;;;;;;;;5034084;28;20450;-76
2023/01/09 09:36:26;;;;;;;1.30;1.20;;;;;;;;;;5032375;28;21013;-76
2023/01/09 09:38:54;;;;;;;1.43;1.33;;;;;;;;;;5032301;28;20478;-76
2023/01/09 09:47:09;;;;;;;1.10;1.00;;;;;;;;;;5031798;28;20845;-76
2023/01/09 09:49:43;;;;;;;1.30;1.03;;;;;;;;;;5031453;28;20982;-75
2023/01/09 09:52:17;;;;;;;1.63;0.90;;;;;;;;;;5031358;28;20454;-75
2023/01/09 09:54:47;;;;;;;2.30;1.17;;;;;;;;;;5031143;28;21048;-77
2023/01/09 09:57:17;;;;;;;1.53;1.30;;;;;;;;;;5031493;28;20457;-77
2023/01/09 09:59:47;;;;;;;4.03;1.33;;;;;;;;;;5031606;28;20463;-76
2023/01/09 10:02:22;;;;;;;1.90;1.43;;;;;;;;;;5031744;28;20446;-76
2023/01/09 10:04:52;;;;;;;2.90;1.70;;;;;;;;;;5030776;28;20620;-77
2023/01/09 10:07:21;;;;;;;1.40;1.10;;;;;;;;;;5031190;28;20455;-75
2023/01/09 10:09:49;;;;;;;1.40;1.27;;;;;;;;;;5031288;28;20473;-76
2023/01/09 10:12:25;;;;;;;2.40;1.27;;;;;;;;;;5031321;28;20451;-76
2023/01/09 10:14:53;;;;;;;2.40;1.30;;;;;;;;;;5037183;28;20452;-76
2023/01/09 10:17:29;;;;;;;3.63;1.30;;;;;;;;;;5049608;28;20524;-76
2023/01/09 10:20:05;;;;;;;3.67;1.50;;;;;;;;;;5051438;28;20449;-77
2023/01/09 10:22:35;;;;;;;1.73;1.13;;;;;;;;;;5045760;28;20541;-75
2023/01/09 10:25:11;;;;;;;1.30;1.20;;;;;;;;;;5047160;28;20438;-77
2023/01/09 10:27:47;;;;;;;3.53;1.23;;;;;;;;;;5042280;28;20450;-76
2023/01/09 10:30:24;;;;;;;2.27;1.30;;;;;;;;;;5047336;28;20498;-75
2023/01/09 10:32:56;;;;;;;2.10;1.63;;;;;;;;;;5042524;28;20465;-77
2023/01/09 10:35:39;;;;;;;1.20;1.10;;;;;;;;;;5042035;28;20487;-75
2023/01/09 10:38:07;;;;;;;3.57;1.20;;;;;;;;;;5045511;28;20455;-77
2023/01/09 10:40:36;;;;;;;1.70;1.40;;;;;;;;;;5045670;28;20442;-75
2023/01/09 10:43:05;;;;;;;1.90;1.20;;;;;;;;;;5055975;28;20445;-75
2023/01/09 10:45:36;;;;;;;3.03;1.47;;;;;;;;;;5051020;28;20438;-75
2023/01/09 10:48:05;;;;;;;6.00;1.53;;;;;;;;;;5057070;28;20474;-77
2023/01/09 10:50:34;;;;;;;2.73;1.30;;;;;;;;;;5065191;28;21077;-76
2023/01/09 10:53:05;;;;;;;3.90;1.27;;;;;;;;;;5064798;28;20433;-76
2023/01/09 10:55:37;;;;;;;3.50;1.93;;;;;;;;;;5048181;28;20501;-75
2023/01/09 10:58:11;;;;;;;3.03;1.70;;;;;;;;;;5043078;28;20465;-75
2023/01/09 11:00:39;;;;;;;3.27;1.20;;;;;;;;;;5043185;28;20439;-76
2023/01/09 11:03:06;;;;;;;6.73;1.33;;;;;;;;;;5050062;28;20437;-75
2023/01/09 11:05:35;;;;;;;3.17;1.40;;;;;;;;;;5050873;28;20441;-75
2023/01/09 11:08:16;;;;;;;5.77;1.80;;;;;;;;;;5050293;28;20478;-74
2023/01/09 11:10:47;;;;;;;2.90;1.70;;;;;;;;;;5050645;28;20429;-75
2023/01/09 11:13:15;;;;;;;4.20;1.43;;;;;;;;;;5049559;28;20529;-76
2023/01/09 11:15:42;;;;;;;2.90;1.80;;;;;;;;;;5036963;28;20478;-75
2023/01/09 11:18:20;;;;;;;4.03;2.17;;;;;;;;;;5045057;28;20469;-76
2023/01/09 11:20:48;;;;;;;2.93;1.90;;;;;;;;;;5050191;28;20846;-76
2023/01/09 11:23:29;;;;;;;2.87;2.07;;;;;;;;;;5050104;28;20809;-75
2023/01/09 11:25:57;;;;;;;4.70;1.70;;;;;;;;;;5050386;28;20448;-75
2023/01/09 11:28:24;;;;;;;2.73;2.53;;;;;;;;;;5049617;28;20481;-77
2023/01/09 11:30:52;;;;;;;2.10;1.43;;;;;;;;;;5049651;28;20581;-76
2023/01/09 11:33:23;;;;;;;3.53;1.67;;;;;;;;;;5049882;28;20442;-75
2023/01/09 11:35:55;;;;;;;2.80;1.83;;;;;;;;;;5049693;28;20500;-76
2023/01/09 11:38:22;;;;;;;2.10;1.27;;;;;;;;;;5050048;28;20552;-77
2023/01/09 11:40:50;;;;;;;5.77;1.40;;;;;;;;;;5050001;28;20441;-75
2023/01/09 11:43:19;;;;;;;1.67;1.53;;;;;;;;;;5049850;28;20973;-76
2023/01/09 11:45:48;;;;;;;5.40;1.50;;;;;;;;;;5050338;28;20437;-76
2023/01/09 11:48:19;;;;;;;4.93;1.97;;;;;;;;;;5050361;28;20461;-75
2023/01/09 11:50:55;;;;;;;7.57;1.60;;;;;;;;;;5049637;28;20444;-77
2023/01/09 11:53:23;;;;;;;2.30;1.60;;;;;;;;;;5049066;28;20485;-75
2023/01/09 11:55:55;;;;;;;2.13;1.17;;;;;;;;;;5048396;28;20486;-77
2023/01/09 11:58:22;;;;;;;1.53;1.17;;;;;;;;;;5049184;28;20580;-76
2023/01/09 12:00:54;;;;;;;3.67;1.30;;;;;;;;;;5048941;28;20450;-75
2023/01/09 12:03:28;;;;;;;3.90;1.60;;;;;;;;;;5048925;28;20434;-75
2023/01/09 12:06:00;;;;;;;3.77;1.80;;;;;;;;;;5048863;28;20548;-76
2023/01/09 12:08:32;;;;;;;4.80;1.43;;;;;;;;;;5048917;28;20462;-75
2023/01/09 12:11:23;;;;;;;1.97;1.10;;;;;;;;;;5048115;28;20454;-76
2023/01/09 12:13:57;;;;;;;3.20;1.60;;;;;;;;;;5047813;28;20852;-76
2023/01/09 12:16:29;;;;;;;3.10;1.20;;;;;;;;;;5042788;28;20873;-75
2023/01/09 12:19:02;;;;;;;5.00;1.57;;;;;;;;;;5048116;28;20470;-76
2023/01/09 12:21:34;;;;;;;4.43;1.70;;;;;;;;;;5048318;28;20446;-75
2023/01/09 12:24:10;;;;;;;1.93;1.37;;;;;;;;;;5048021;28;20987;-75
2023/01/09 12:26:40;;;;;;;1.70;1.10;;;;;;;;;;5050951;28;20456;-74
2023/01/09 12:29:23;;;;;;;1.43;1.23;;;;;;;;;;5050853;28;20461;-75
2023/01/09 12:32:08;;;;;;;2.67;1.60;;;;;;;;;;5051795;28;20445;-75
2023/01/09 12:34:41;;;;;;;4.60;1.77;;;;;;;;;;5040427;28;20450;-76
2023/01/09 12:37:17;;;;;;;1.87;1.17;;;;;;;;;;5046827;28;20480;-76
2023/01/09 12:39:47;;;;;;;3.57;1.10;;;;;;;;;;5043920;28;20483;-76
2023/01/09 12:42:25;;;;;;;2.10;1.20;;;;;;;;;;5052748;28;20429;-76
2023/01/09 12:44:53;;;;;;;2.67;1.20;;;;;;;;;;5044342;28;20969;-76
2023/01/09 12:47:35;;;;;;;1.90;1.37;;;;;;;;;;5049681;28;20909;-76
2023/01/09 12:50:07;;;;;;;1.67;1.40;;;;;;;;;;5050068;28;20452;-75
2023/01/09 12:52:38;;;;;;;2.87;0.90;;;;;;;;;;5049621;28;20430;-75
2023/01/09 12:55:12;;;;;;;1.50;1.33;;;;;;;;;;5049900;28;20808;-75
2023/01/09 12:57:42;;;;;;;2.93;1.30;;;;;;;;;;5049328;28;21029;-75
2023/01/09 13:00:17;;;;;;;3.77;1.40;;;;;;;;;;5047911;28;20445;-75
2023/01/09 13:02:45;;;;;;;2.00;1.57;;;;;;;;;;5048759;28;20449;-74
2023/01/09 13:05:15;;;;;;;2.20;1.13;;;;;;;;;;5049462;28;20460;-75
2023/01/09 13:07:47;;;;;;;2.70;1.10;;;;;;;;;;5049738;28;20433;-76
2023/01/09 13:10:18;;;;;;;2.00;1.50;;;;;;;;;;5049794;28;20453;-76
2023/01/09 13:12:46;;;;;;;1.13;1.00;;;;;;;;;;5048444;28;20453;-74
2023/01/09 13:15:21;;;;;;;4.23;1.33;;;;;;;;;;5049062;28;20441;-75
2023/01/09 13:17:50;;;;;;;2.67;1.00;;;;;;;;;;5050298;28;20480;-75
2023/01/09 13:20:20;;;;;;;1.50;1.20;;;;;;;;;;5050406;28;20524;-76
2023/01/09 13:22:49;;;;;;;6.13;1.10;;;;;;;;;;5049319;28;20450;-75
2023/01/09 13:25:39;;;;;;;1.80;1.27;;;;;;;;;;5049329;28;20445;-74
2023/01/09 13:28:08;;;;;;;1.43;1.07;;;;;;;;;;5048285;28;21019;-74
2023/01/09 13:30:56;;;;;;;2.53;1.20;;;;;;;;;;5049465;28;20445;-75
2023/01/09 13:33:24;;;;;;;1.60;1.03;;;;;;;;;;5049583;28;20454;-74
2023/01/09 13:35:52;;;;;;;1.80;1.40;;;;;;;;;;5048988;28;20445;-74
2023/01/09 13:38:22;;;;;;;2.20;1.10;;;;;;;;;;5049915;28;20480;-74
2023/01/09 13:42:34;;;;;;;4.03;2.07;;;;;;;;;;5050000;28;20446;-74
2023/01/09 13:43:55;;;;;;;2.73;1.10;;;;;;;;;;5048354;28;20964;-75
2023/01/09 13:46:22;;;;;;;1.90;1.30;;;;;;;;;;5050194;28;20445;-75
2023/01/09 13:48:49;;;;;;;2.30;1.10;;;;;;;;;;5049947;28;20476;-74
2023/01/09 13:51:34;;;;;;;1.30;1.20;;;;;;;;;;5049469;28;20964;-75
2023/01/09 13:54:03;;;;;;;1.10;1.00;;;;;;;;;;5048394;28;20452;-78
2023/01/09 13:56:30;;;;;;;2.70;1.20;;;;;;;;;;5049288;28;20887;-76
2023/01/09 13:58:59;;;;;;;1.37;0.93;;;;;;;;;;5048632;28;20465;-74
2023/01/09 14:01:46;;;;;;;1.27;1.07;;;;;;;;;;5048784;28;21294;-76
2023/01/09 14:04:43;;;;;;;0.80;0.80;;;;;;;;;;5048927;28;20543;-76
2023/01/09 14:07:30;;;;;;;0.77;0.77;;;;;;;;;;4987788;28;20895;-76
2023/01/09 14:10:00;;;;;;;0.77;0.70;;;;;;;;;;5042561;28;20454;-76
2023/01/09 14:12:28;;;;;;;2.97;1.27;;;;;;;;;;5052214;28;20449;-76
2023/01/09 14:14:56;;;;;;;0.63;0.60;;;;;;;;;;5052117;28;20468;-76
2023/01/09 14:17:26;;;;;;;1.47;0.70;;;;;;;;;;5056798;28;20488;-76
2023/01/09 14:19:55;;;;;;;1.17;1.00;;;;;;;;;;5062045;28;20539;-75
2023/01/09 14:22:26;;;;;;;0.70;0.70;;;;;;;;;;5060009;28;20461;-75
2023/01/09 14:24:55;;;;;;;0.93;0.90;;;;;;;;;;5053038;28;20910;-75
2023/01/09 14:27:41;;;;;;;0.97;0.60;;;;;;;;;;5048589;28;20999;-75
2023/01/09 14:30:28;;;;;;;0.60;0.60;;;;;;;;;;5048521;28;20822;-74
2023/01/09 14:32:58;;;;;;;0.90;0.90;;;;;;;;;;5048114;28;20414;-76
2023/01/09 14:35:33;;;;;;;0.80;0.80;;;;;;;;;;5048734;28;20445;-75
2023/01/09 14:38:05;;;;;;;1.43;0.70;;;;;;;;;;5048609;28;20488;-76
2023/01/09 14:40:33;;;;;;;1.00;1.00;;;;;;;;;;5048681;28;20825;-77
2023/01/09 14:43:05;;;;;;;0.70;0.67;;;;;;;;;;5047938;28;20999;-76
2023/01/09 14:45:35;;;;;;;0.90;0.90;;;;;;;;;;5048801;28;20753;-74
2023/01/09 14:48:04;;;;;;;1.17;1.07;;;;;;;;;;5047098;28;20457;-75
2023/01/09 14:50:33;;;;;;;0.90;0.90;;;;;;;;;;5048269;28;20821;-75
2023/01/09 14:53:04;;;;;;;1.20;1.10;;;;;;;;;;5048365;28;21007;-74
2023/01/09 14:55:34;;;;;;;0.90;0.90;;;;;;;;;;5048279;28;20477;-75
2023/01/09 14:58:10;;;;;;;1.37;1.27;;;;;;;;;;5047922;28;20482;-75
2023/01/09 15:00:46;;;;;;;0.90;0.90;;;;;;;;;;5047815;28;20488;-75
2023/01/09 15:03:13;;;;;;;1.57;1.47;;;;;;;;;;5048389;28;20471;-75
2023/01/09 15:05:40;;;;;;;1.17;1.10;;;;;;;;;;5048551;28;21001;-74
2023/01/09 15:08:07;;;;;;;0.90;0.60;;;;;;;;;;5048379;28;20561;-74
2023/01/09 15:10:36;;;;;;;0.93;0.80;;;;;;;;;;5048472;28;20449;-75
2023/01/09 15:13:05;;;;;;;2.53;1.00;;;;;;;;;;5048852;28;20495;-76
2023/01/09 15:15:32;;;;;;;2.13;1.20;;;;;;;;;;5038535;28;20500;-74